Aviation Digital Data Service (ADDS)

Output produced by METARs form (1827 UTC 16 August 2018)
found at http://www.aviationweather.gov/adds/metars/
 
TAF MZBZ 161500Z 1618/1718 09007KT 9999 SCT023 
     PROB40 
     TEMPO 1709/1718 4000 TSRA SCT012CB BKN040
       
TAF MZBZ 161500Z 1618/1718 09007KT 9999 SCT023 
     PROB40 
     TEMPO 1709/1718 4000 TSRA SCT012CB BKN040